Wetterdaten: Woche 17.11.14 - 23.11.14 (KW47)
Datum Zeit Temp. A. Feuchte A. Luftdruck Regen Wind Richtung Taupunkt Windchill Windben
17.11.2014 00:00 8,7 C 82 % 1008,2 hPa 0,3 l/m 0,4 km/h N 5,8 C 8,7 C 5,2 km/h
17.11.2014 01:00 8,7 C 82 % 1008,1 hPa 0,0 l/m 0,3 km/h N 5,8 C 8,7 C 4,8 km/h
17.11.2014 02:00 8,7 C 81 % 1008,3 hPa 0,0 l/m 1,0 km/h N 5,6 C 8,7 C 6,8 km/h
17.11.2014 03:00 8,7 C 81 % 1008,1 hPa 0,0 l/m 0,7 km/h N 5,6 C 8,7 C 5,6 km/h
17.11.2014 04:00 8,7 C 80 % 1008,3 hPa 0,0 l/m 0,8 km/h N 5,4 C 8,7 C 6,0 km/h
17.11.2014 05:00 8,7 C 80 % 1008,4 hPa 0,0 l/m 1,2 km/h N 5,4 C 8,7 C 7,6 km/h
17.11.2014 06:00 8,6 C 80 % 1008,7 hPa 0,0 l/m 1,3 km/h N 5,3 C 8,6 C 9,7 km/h
17.11.2014 07:00 8,6 C 80 % 1009,0 hPa 0,0 l/m 1,4 km/h N 5,3 C 8,6 C 7,6 km/h
17.11.2014 08:00 8,4 C 80 % 1009,2 hPa 0,0 l/m 1,7 km/h N 5,2 C 8,4 C 8,9 km/h
17.11.2014 09:00 8,4 C 80 % 1009,3 hPa 0,0 l/m 1,7 km/h N 5,2 C 8,4 C 10,1 km/h
17.11.2014 10:00 8,6 C 80 % 1009,3 hPa 0,0 l/m 2,3 km/h N 5,4 C 8,6 C 10,1 km/h
17.11.2014 11:00 8,8 C 80 % 1009,0 hPa 0,0 l/m 3,2 km/h N 5,5 C 8,8 C 12,1 km/h
17.11.2014 12:00 8,9 C 80 % 1008,6 hPa 0,3 l/m 2,9 km/h N 5,7 C 8,9 C 13,7 km/h
17.11.2014 13:00 9,2 C 81 % 1008,5 hPa 0,0 l/m 3,4 km/h N 6,0 C 9,2 C 16,1 km/h
17.11.2014 14:00 9,3 C 82 % 1008,5 hPa 0,0 l/m 2,0 km/h N 6,3 C 9,3 C 11,7 km/h
17.11.2014 15:00 9,0 C 83 % 1008,6 hPa 0,0 l/m 2,4 km/h N 6,3 C 9,0 C 12,1 km/h
17.11.2014 16:00 8,9 C 83 % 1008,6 hPa 0,0 l/m 1,8 km/h N 6,1 C 8,9 C 10,5 km/h
17.11.2014 17:00 8,9 C 83 % 1008,8 hPa 0,0 l/m 1,5 km/h N 6,1 C 8,9 C 8,4 km/h
17.11.2014 18:00 9,1 C 82 % 1008,8 hPa 0,0 l/m 2,0 km/h N 6,1 C 9,1 C 10,9 km/h
17.11.2014 19:00 9,1 C 82 % 1008,8 hPa 0,0 l/m 4,7 km/h N 6,2 C 9,1 C 16,5 km/h
17.11.2014 20:00 9,0 C 82 % 1008,9 hPa 0,0 l/m 4,1 km/h N 6,1 C 9,0 C 15,7 km/h
17.11.2014 21:00 8,8 C 82 % 1009,2 hPa 0,0 l/m 2,8 km/h N 5,9 C 8,8 C 12,5 km/h
17.11.2014 22:00 8,6 C 83 % 1009,2 hPa 0,0 l/m 2,9 km/h N 5,9 C 8,6 C 13,7 km/h
17.11.2014 23:00 8,3 C 83 % 1009,2 hPa 0,0 l/m 3,9 km/h N 5,5 C 8,3 C 15,7 km/h
18.11.2014 00:00 8,2 C 82 % 1008,8 hPa 0,0 l/m 1,9 km/h N 5,3 C 8,2 C 11,7 km/h
18.11.2014 01:00 8,0 C 83 % 1008,5 hPa 0,0 l/m 1,6 km/h N 5,3 C 8,0 C 10,5 km/h
18.11.2014 02:00 7,6 C 83 % 1008,6 hPa 0,0 l/m 2,5 km/h N 4,8 C 7,6 C 12,5 km/h
18.11.2014 03:00 7,3 C 82 % 1008,0 hPa 0,3 l/m 2,0 km/h N 4,5 C 7,3 C 10,1 km/h
18.11.2014 04:00 7,3 C 82 % 1007,4 hPa 0,8 l/m 1,8 km/h N 4,3 C 7,3 C 11,3 km/h
18.11.2014 05:00 7,5 C 81 % 1006,9 hPa 2,1 l/m 1,1 km/h N 4,4 C 7,5 C 6,8 km/h
18.11.2014 06:00 7,7 C 81 % 1006,7 hPa 3,9 l/m 0,8 km/h N 4,6 C 7,7 C 6,0 km/h
18.11.2014 07:00 8,1 C 80 % 1005,8 hPa 2,1 l/m 0,5 km/h N 4,8 C 8,1 C 5,2 km/h
18.11.2014 08:00 8,4 C 80 % 1005,5 hPa 1,0 l/m 1,9 km/h N 5,1 C 8,4 C 8,4 km/h
18.11.2014 09:00 8,7 C 80 % 1005,5 hPa 0,0 l/m 6,0 km/h N 5,4 C 8,3 C 18,5 km/h
18.11.2014 10:00 8,7 C 80 % 1005,6 hPa 0,0 l/m 4,5 km/h N 5,4 C 8,7 C 15,7 km/h
18.11.2014 11:00 8,9 C 80 % 1005,0 hPa 0,0 l/m 3,3 km/h N 5,6 C 8,9 C 16,9 km/h
18.11.2014 12:00 9,5 C 80 % 1004,7 hPa 0,0 l/m 2,8 km/h N 6,2 C 9,5 C 15,3 km/h
18.11.2014 13:00 10,0 C 82 % 1004,7 hPa 0,0 l/m 1,3 km/h N 7,0 C 10,0 C 10,1 km/h
18.11.2014 14:00 10,5 C 84 % 1004,9 hPa 0,0 l/m 1,0 km/h N 7,8 C 10,5 C 6,4 km/h
18.11.2014 15:00 8,6 C 86 % 1006,1 hPa 1,6 l/m 4,0 km/h N 6,4 C 8,6 C 14,9 km/h
18.11.2014 16:00 7,4 C 86 % 1006,6 hPa 0,5 l/m 4,1 km/h N 5,2 C 7,4 C 12,1 km/h
18.11.2014 17:00 7,2 C 86 % 1007,4 hPa 0,0 l/m 2,4 km/h N 5,0 C 7,2 C 8,9 km/h
18.11.2014 18:00 7,2 C 86 % 1008,5 hPa 0,5 l/m 0,5 km/h N 5,0 C 7,2 C 4,8 km/h
18.11.2014 19:00 6,9 C 86 % 1009,1 hPa 0,0 l/m 0,1 km/h N 4,7 C 6,9 C 2,4 km/h
18.11.2014 20:00 6,5 C 86 % 1009,5 hPa 0,3 l/m 0,2 km/h N 4,4 C 6,5 C 4,8 km/h
18.11.2014 21:00 6,5 C 85 % 1010,0 hPa 0,0 l/m 0,1 km/h N 4,1 C 6,5 C 2,0 km/h
18.11.2014 22:00 6,6 C 85 % 1010,4 hPa 0,0 l/m 0,9 km/h N 4,3 C 6,6 C 4,4 km/h
18.11.2014 23:00 6,7 C 86 % 1010,8 hPa 0,0 l/m 0,7 km/h N 4,5 C 6,7 C 4,4 km/h
19.11.2014 00:00 6,6 C 85 % 1010,8 hPa 0,0 l/m 0,4 km/h N 4,3 C 6,6 C 3,6 km/h
19.11.2014 01:00 6,7 C 85 % 1011,3 hPa 0,0 l/m 0,8 km/h N 4,4 C 6,7 C 4,4 km/h
19.11.2014 02:00 6,6 C 86 % 1011,3 hPa 0,0 l/m 0,1 km/h N 4,5 C 6,6 C 0,8 km/h
19.11.2014 03:00 6,3 C 86 % 1011,5 hPa 0,0 l/m 0,0 km/h N 4,1 C 6,3 C 0,0 km/h
19.11.2014 04:00 6,1 C 85 % 1011,9 hPa 0,0 l/m 0,2 km/h N 3,8 C 6,1 C 1,2 km/h
19.11.2014 05:00 6,0 C 85 % 1012,3 hPa 0,0 l/m 0,0 km/h N 3,7 C 6,0 C 0,0 km/h
19.11.2014 06:00 5,7 C 85 % 1012,8 hPa 0,0 l/m 0,0 km/h N 3,4 C 5,7 C 0,0 km/h
19.11.2014 07:00 5,2 C 85 % 1013,5 hPa 0,0 l/m 0,0 km/h N 2,9 C 5,2 C 1,2 km/h
19.11.2014 08:00 6,4 C 83 % 1014,3 hPa 0,0 l/m 0,0 km/h N 3,8 C 6,4 C 0,4 km/h
19.11.2014 09:00 8,3 C 84 % 1014,8 hPa 0,0 l/m 0,6 km/h N 5,8 C 8,3 C 5,6 km/h
19.11.2014 10:00 10,5 C 74 % 1015,0 hPa 0,0 l/m 4,8 km/h N 6,1 C 10,5 C 17,3 km/h
19.11.2014 11:00 11,2 C 68 % 1015,3 hPa 0,0 l/m 7,6 km/h N 5,5 C 10,4 C 24,1 km/h
19.11.2014 12:00 10,3 C 71 % 1015,7 hPa 0,0 l/m 6,5 km/h N 5,3 C 9,7 C 17,7 km/h
19.11.2014 13:00 9,7 C 74 % 1016,3 hPa 0,0 l/m 7,1 km/h N 5,2 C 9,0 C 20,1 km/h
19.11.2014 14:00 8,8 C 78 % 1017,2 hPa 0,0 l/m 7,4 km/h N 5,0 C 8,0 C 22,5 km/h
19.11.2014 15:00 8,3 C 80 % 1017,8 hPa 0,0 l/m 9,1 km/h N 5,0 C 6,3 C 24,5 km/h
19.11.2014 16:00 8,4 C 79 % 1018,4 hPa 0,0 l/m 9,3 km/h N 5,0 C 6,3 C 24,5 km/h
19.11.2014 17:00 8,2 C 81 % 1019,1 hPa 0,0 l/m 6,2 km/h N 5,2 C 7,9 C 18,1 km/h
19.11.2014 18:00 8,4 C 81 % 1019,8 hPa 0,0 l/m 7,5 km/h N 5,4 C 7,5 C 20,1 km/h
19.11.2014 19:00 8,4 C 81 % 1020,5 hPa 0,0 l/m 10,5 km/h N 5,4 C 5,6 C 24,9 km/h
19.11.2014 20:00 8,3 C 81 % 1021,1 hPa 0,0 l/m 8,2 km/h N 5,3 C 7,0 C 22,1 km/h
19.11.2014 21:00 7,5 C 85 % 1021,8 hPa 0,0 l/m 5,4 km/h N 5,1 C 7,5 C 17,3 km/h
19.11.2014 22:00 7,4 C 85 % 1022,3 hPa 0,3 l/m 6,6 km/h N 5,0 C 7,1 C 20,9 km/h
19.11.2014 23:00 7,3 C 86 % 1022,9 hPa 0,0 l/m 5,4 km/h N 5,0 C 7,2 C 16,1 km/h
20.11.2014 00:00 7,4 C 84 % 1023,2 hPa 0,0 l/m 7,4 km/h N 4,9 C 6,5 C 20,1 km/h
20.11.2014 01:00 7,4 C 83 % 1023,4 hPa 0,0 l/m 8,6 km/h N 4,7 C 5,7 C 21,3 km/h
20.11.2014 02:00 7,3 C 83 % 1023,9 hPa 0,0 l/m 5,9 km/h N 4,5 C 7,0 C 18,1 km/h
20.11.2014 03:00 7,2 C 83 % 1024,3 hPa 0,0 l/m 3,1 km/h N 4,5 C 7,2 C 12,1 km/h
20.11.2014 04:00 7,1 C 84 % 1024,3 hPa 0,0 l/m 2,7 km/h N 4,6 C 7,1 C 12,1 km/h
20.11.2014 05:00 6,9 C 84 % 1024,7 hPa 0,0 l/m 1,8 km/h N 4,4 C 6,9 C 8,9 km/h
20.11.2014 06:00 6,9 C 83 % 1024,9 hPa 0,0 l/m 2,1 km/h N 4,2 C 6,9 C 9,6 km/h
20.11.2014 07:00 6,8 C 83 % 1025,3 hPa 0,0 l/m 0,9 km/h N 4,0 C 6,8 C 5,2 km/h
20.11.2014 08:00 7,2 C 83 % 1025,7 hPa 0,0 l/m 3,3 km/h N 4,5 C 7,2 C 11,3 km/h
20.11.2014 09:00 7,8 C 80 % 1025,9 hPa 0,0 l/m 4,5 km/h N 4,5 C 7,8 C 16,1 km/h
20.11.2014 10:00 8,3 C 79 % 1026,1 hPa 0,0 l/m 4,7 km/h N 4,9 C 8,3 C 14,9 km/h
20.11.2014 11:00 8,7 C 79 % 1025,6 hPa 0,0 l/m 4,2 km/h N 5,1 C 8,7 C 13,7 km/h
20.11.2014 12:00 8,7 C 78 % 1025,2 hPa 0,0 l/m 4,0 km/h N 5,0 C 8,7 C 14,5 km/h
20.11.2014 13:00 8,7 C 78 % 1024,9 hPa 0,0 l/m 2,8 km/h N 5,1 C 8,7 C 12,5 km/h
20.11.2014 14:00 8,6 C 79 % 1024,9 hPa 0,0 l/m 1,9 km/h N 5,1 C 8,6 C 8,5 km/h
20.11.2014 15:00 8,4 C 79 % 1025,0 hPa 0,0 l/m 2,0 km/h N 5,0 C 8,4 C 8,4 km/h
20.11.2014 16:00 8,2 C 80 % 1025,2 hPa 0,0 l/m 1,6 km/h N 5,0 C 8,2 C 7,6 km/h
20.11.2014 17:00 8,1 C 81 % 1025,3 hPa 0,0 l/m 1,5 km/h N 4,9 C 8,1 C 5,2 km/h
20.11.2014 18:00 7,9 C 81 % 1025,4 hPa 0,0 l/m 1,0 km/h N 4,8 C 7,9 C 6,0 km/h
20.11.2014 19:00 7,8 C 82 % 1025,4 hPa 0,0 l/m 1,1 km/h N 4,8 C 7,8 C 6,0 km/h
20.11.2014 20:00 7,6 C 82 % 1025,5 hPa 0,0 l/m 1,0 km/h N 4,7 C 7,6 C 5,6 km/h
20.11.2014 21:00 7,4 C 82 % 1025,9 hPa 0,0 l/m 0,4 km/h N 4,5 C 7,4 C 3,2 km/h
20.11.2014 22:00 7,2 C 80 % 1025,6 hPa 0,0 l/m 1,0 km/h N 3,9 C 7,2 C 4,4 km/h
20.11.2014 23:00 6,9 C 78 % 1025,6 hPa 0,0 l/m 0,3 km/h N 3,3 C 6,9 C 3,2 km/h
21.11.2014 00:00 6,1 C 79 % 1025,6 hPa 0,0 l/m 0,1 km/h N 2,7 C 6,1 C 1,2 km/h
21.11.2014 01:00 6,3 C 82 % 1025,6 hPa 0,0 l/m 0,8 km/h N 3,5 C 6,3 C 4,0 km/h
21.11.2014 02:00 6,4 C 82 % 1025,5 hPa 0,0 l/m 1,1 km/h N 3,5 C 6,4 C 5,2 km/h
21.11.2014 03:00 6,3 C 82 % 1025,5 hPa 0,0 l/m 1,4 km/h N 3,4 C 6,3 C 6,4 km/h
21.11.2014 04:00 6,1 C 81 % 1025,6 hPa 0,0 l/m 1,4 km/h N 3,1 C 6,1 C 8,0 km/h
21.11.2014 05:00 5,9 C 82 % 1025,8 hPa 0,0 l/m 0,9 km/h N 3,0 C 5,9 C 5,2 km/h
21.11.2014 06:00 5,1 C 82 % 1025,8 hPa 0,0 l/m 0,2 km/h N 2,2 C 5,1 C 2,8 km/h
21.11.2014 07:00 4,1 C 84 % 1026,1 hPa 0,0 l/m 0,1 km/h N 1,6 C 4,1 C 1,2 km/h
21.11.2014 08:00 5,1 C 85 % 1026,2 hPa 0,0 l/m 1,1 km/h N 2,9 C 5,1 C 6,0 km/h
21.11.2014 09:00 6,3 C 81 % 1026,3 hPa 0,0 l/m 3,2 km/h N 3,3 C 6,3 C 9,6 km/h
21.11.2014 10:00 6,8 C 77 % 1026,4 hPa 0,0 l/m 2,5 km/h N 3,0 C 6,8 C 8,0 km/h
21.11.2014 11:00 7,3 C 74 % 1026,0 hPa 0,0 l/m 1,2 km/h N 3,0 C 7,3 C 6,4 km/h
21.11.2014 12:00 7,4 C 73 % 1025,6 hPa 0,0 l/m 2,3 km/h N 3,0 C 7,4 C 8,1 km/h
21.11.2014 13:00 7,6 C 73 % 1025,1 hPa 0,0 l/m 1,8 km/h N 3,1 C 7,6 C 6,8 km/h
21.11.2014 14:00 7,5 C 74 % 1024,9 hPa 0,0 l/m 0,9 km/h N 3,2 C 7,5 C 5,2 km/h
21.11.2014 15:00 7,0 C 76 % 1025,0 hPa 0,0 l/m 0,3 km/h N 3,0 C 7,0 C 3,6 km/h
21.11.2014 16:00 6,4 C 77 % 1024,9 hPa 0,0 l/m 0,1 km/h N 2,7 C 6,4 C 2,4 km/h
21.11.2014 17:00 5,8 C 78 % 1025,1 hPa 0,0 l/m 0,0 km/h N 2,2 C 5,8 C 1,2 km/h
21.11.2014 18:00 5,5 C 81 % 1025,4 hPa 0,0 l/m 0,1 km/h N 2,4 C 5,5 C 2,4 km/h
21.11.2014 19:00 5,4 C 81 % 1025,4 hPa 0,0 l/m 0,3 km/h N 2,4 C 5,4 C 5,6 km/h
21.11.2014 20:00 5,5 C 81 % 1025,3 hPa 0,0 l/m 0,1 km/h N 2,5 C 5,5 C 1,6 km/h
21.11.2014 21:00 5,4 C 81 % 1025,3 hPa 0,0 l/m 0,0 km/h N 2,4 C 5,4 C 1,2 km/h
21.11.2014 22:00 5,3 C 81 % 1025,1 hPa 0,0 l/m 0,1 km/h N 2,3 C 5,3 C 2,0 km/h
21.11.2014 23:00 5,3 C 81 % 1025,3 hPa 0,0 l/m 0,0 km/h N 2,3 C 5,3 C 0,8 km/h
22.11.2014 00:00 5,2 C 81 % 1025,2 hPa 0,0 l/m 0,0 km/h N 2,2 C 5,2 C 0,4 km/h
22.11.2014 01:00 5,1 C 82 % 1024,9 hPa 0,0 l/m 0,0 km/h N 2,2 C 5,1 C 0,0 km/h
22.11.2014 02:00 4,9 C 83 % 1024,8 hPa 0,0 l/m 0,0 km/h N 2,2 C 4,9 C 0,8 km/h
22.11.2014 03:00 4,9 C 83 % 1024,7 hPa 0,0 l/m 0,0 km/h N 2,2 C 4,9 C 0,0 km/h
22.11.2014 04:00 4,8 C 84 % 1024,6 hPa 0,0 l/m 0,0 km/h N 2,3 C 4,8 C 0,4 km/h
22.11.2014 05:00 4,7 C 84 % 1024,6 hPa 0,0 l/m 0,0 km/h N 2,3 C 4,7 C 0,0 km/h
22.11.2014 06:00 4,6 C 85 % 1024,6 hPa 0,0 l/m 0,0 km/h N 2,3 C 4,6 C 0,0 km/h
22.11.2014 07:00 4,6 C 85 % 1025,0 hPa 0,0 l/m 0,1 km/h N 2,3 C 4,6 C 1,6 km/h
22.11.2014 08:00 4,8 C 85 % 1025,4 hPa 0,0 l/m 0,2 km/h N 2,5 C 4,8 C 2,0 km/h
22.11.2014 09:00 5,0 C 86 % 1025,8 hPa 0,0 l/m 0,4 km/h N 2,8 C 5,0 C 4,0 km/h
22.11.2014 10:00 5,2 C 85 % 1026,2 hPa 0,0 l/m 0,2 km/h N 2,9 C 5,2 C 3,2 km/h
22.11.2014 11:00 5,3 C 85 % 1026,1 hPa 0,0 l/m 0,4 km/h N 3,0 C 5,3 C 4,0 km/h
22.11.2014 12:00 5,3 C 86 % 1025,9 hPa 0,0 l/m 0,2 km/h N 3,1 C 5,3 C 3,2 km/h
22.11.2014 13:00 5,3 C 86 % 1025,9 hPa 0,0 l/m 0,1 km/h N 3,2 C 5,3 C 2,4 km/h
22.11.2014 14:00 5,3 C 85 % 1025,8 hPa 0,0 l/m 0,1 km/h N 3,0 C 5,3 C 2,0 km/h
22.11.2014 15:00 5,3 C 84 % 1025,9 hPa 0,0 l/m 0,7 km/h N 2,8 C 5,3 C 5,2 km/h
22.11.2014 16:00 5,5 C 84 % 1026,1 hPa 0,0 l/m 0,1 km/h N 3,0 C 5,5 C 1,2 km/h
22.11.2014 17:00 5,6 C 86 % 1026,2 hPa 0,0 l/m 0,3 km/h N 3,4 C 5,6 C 3,6 km/h
22.11.2014 18:00 5,6 C 86 % 1026,4 hPa 0,0 l/m 0,1 km/h N 3,4 C 5,6 C 2,4 km/h
22.11.2014 19:00 5,6 C 86 % 1026,6 hPa 0,0 l/m 0,3 km/h N 3,4 C 5,6 C 4,4 km/h
22.11.2014 20:00 5,6 C 86 % 1026,6 hPa 0,0 l/m 0,2 km/h N 3,4 C 5,6 C 4,8 km/h
22.11.2014 21:00 5,6 C 86 % 1026,6 hPa 0,0 l/m 0,2 km/h N 3,5 C 5,6 C 3,6 km/h
22.11.2014 22:00 5,7 C 85 % 1026,5 hPa 0,0 l/m 0,2 km/h N 3,4 C 5,7 C 3,2 km/h
22.11.2014 23:00 5,8 C 85 % 1026,5 hPa 0,0 l/m 0,1 km/h N 3,4 C 5,8 C 2,4 km/h
23.11.2014 00:00 5,8 C 86 % 1026,6 hPa 0,0 l/m 1,1 km/h N 3,5 C 5,8 C 7,2 km/h
23.11.2014 01:00 5,4 C 86 % 1026,9 hPa 0,0 l/m 0,4 km/h N 3,2 C 5,4 C 4,0 km/h
23.11.2014 02:00 4,2 C 85 % 1027,3 hPa 0,0 l/m 0,0 km/h N 1,9 C 4,2 C 0,8 km/h
23.11.2014 03:00 2,8 C 85 % 1027,3 hPa 0,0 l/m 0,0 km/h N 0,5 C 2,8 C 0,0 km/h
23.11.2014 04:00 1,7 C 86 % 1027,4 hPa 0,0 l/m 0,0 km/h N -0,4 C 1,7 C 0,0 km/h
23.11.2014 05:00 2,5 C 86 % 1027,3 hPa 0,0 l/m 0,0 km/h N 0,4 C 2,5 C 0,0 km/h
23.11.2014 06:00 3,2 C 86 % 1027,1 hPa 0,0 l/m 0,0 km/h N 1,0 C 3,2 C 0,0 km/h
23.11.2014 07:00 2,4 C 86 % 1027,8 hPa 0,0 l/m 0,0 km/h N 0,3 C 2,4 C 0,0 km/h
23.11.2014 08:00 2,5 C 85 % 1028,5 hPa 0,0 l/m 0,0 km/h N 0,3 C 2,5 C 0,4 km/h
23.11.2014 09:00 4,1 C 85 % 1028,7 hPa 0,0 l/m 1,7 km/h N 1,8 C 4,1 C 6,4 km/h
23.11.2014 10:00 6,2 C 82 % 1028,9 hPa 0,0 l/m 2,6 km/h N 3,4 C 6,2 C 9,7 km/h
23.11.2014 11:00 7,4 C 79 % 1028,6 hPa 0,0 l/m 3,1 km/h N 3,9 C 7,4 C 10,9 km/h
23.11.2014 12:00 7,2 C 79 % 1028,3 hPa 0,0 l/m 2,8 km/h N 3,8 C 7,2 C 12,1 km/h
23.11.2014 13:00 7,3 C 79 % 1028,1 hPa 0,0 l/m 1,8 km/h N 3,9 C 7,3 C 9,7 km/h
23.11.2014 14:00 7,3 C 78 % 1028,1 hPa 0,0 l/m 2,9 km/h N 3,7 C 7,3 C 12,5 km/h
23.11.2014 15:00 6,9 C 79 % 1028,0 hPa 0,0 l/m 2,7 km/h N 3,6 C 6,9 C 10,5 km/h
23.11.2014 16:00 6,6 C 81 % 1028,0 hPa 0,0 l/m 1,7 km/h N 3,5 C 6,6 C 8,4 km/h
23.11.2014 17:00 6,4 C 82 % 1027,9 hPa 0,0 l/m 2,2 km/h N 3,5 C 6,4 C 9,6 km/h
23.11.2014 18:00 6,3 C 82 % 1028,1 hPa 0,0 l/m 1,7 km/h N 3,4 C 6,3 C 11,3 km/h
23.11.2014 19:00 6,2 C 82 % 1028,1 hPa 0,0 l/m 1,6 km/h N 3,4 C 6,2 C 9,7 km/h
23.11.2014 20:00 6,1 C 82 % 1027,9 hPa 0,0 l/m 1,8 km/h N 3,2 C 6,1 C 10,9 km/h
23.11.2014 21:00 6,0 C 81 % 1027,7 hPa 0,0 l/m 1,7 km/h N 3,0 C 6,0 C 8,4 km/h
23.11.2014 22:00 5,9 C 82 % 1027,6 hPa 0,0 l/m 1,0 km/h N 3,1 C 5,9 C 8,0 km/h
23.11.2014 23:00 5,5 C 83 % 1027,3 hPa 0,0 l/m 1,3 km/h N 2,8 C 5,5 C 11,3 km/h
Min-Datum _ 23.11.14 19.11.14 18.11.14 - 18.11.14 - 23.11.14 23.11.14 18.11.14
_ Min-Zeit 04:30 11:00 12:45 - 19:15 - 04:15 04:30 21:00
Minimum _ 1,6 C 67 % 1004,6 hPa - 0,0 km/h - -0,5 C 1,6 C 0,0 km/h
Max-Datum _ 19.11.14 18.11.14 23.11.14 18.11.14 19.11.14 - 18.11.14 19.11.14 19.11.14
_ Max-Zeit 11:00 15:15 10:30 06:15 19:30 - 14:45 10:45 11:00
Maximum _ 11,6 C 86 % 1029,0 hPa 3,9 l/m 12,2 km/h
N
- 8,1 C 11,5 C 29,0 km/h
N
Durchschnitt _ 7,0 C 82 % 1019,5 hPa #13,8 l/m 1,9 km/h N 4,1 C 6,9 C 8,1 km/h